createdAt,value
2018-08-18T00:00:01.082Z,17
2018-08-18T00:01:01.080Z,19
2018-08-18T00:02:01.082Z,20
2018-08-18T00:03:01.085Z,19
2018-08-18T00:04:01.081Z,21
2018-08-18T00:05:01.080Z,20
2018-08-18T00:06:01.081Z,18
2018-08-18T00:07:01.082Z,17
2018-08-18T00:08:01.080Z,16
2018-08-18T00:09:01.083Z,14
2018-08-18T00:10:01.080Z,16
2018-08-18T00:11:01.084Z,17
2018-08-18T00:13:01.085Z,19
2018-08-18T00:15:01.080Z,18
2018-08-18T00:17:01.089Z,17
2018-08-18T00:18:01.082Z,16
2018-08-18T00:20:01.081Z,17
2018-08-18T00:22:01.081Z,18
2018-08-18T00:23:01.080Z,17
2018-08-18T00:24:01.083Z,16
2018-08-18T00:25:01.109Z,15
2018-08-18T00:29:01.085Z,18
2018-08-18T00:30:01.090Z,17
2018-08-18T00:33:01.092Z,18
2018-08-18T00:34:01.084Z,17
2018-08-18T00:36:01.084Z,16
2018-08-18T00:38:01.094Z,15
2018-08-18T00:40:02.113Z,17
2018-08-18T00:41:01.084Z,19
2018-08-18T00:42:01.093Z,18
2018-08-18T00:43:01.089Z,21
2018-08-18T00:44:01.088Z,20
2018-08-18T00:45:01.094Z,18
2018-08-18T00:46:01.086Z,17
2018-08-18T00:48:01.087Z,16
2018-08-18T00:49:01.106Z,17
2018-08-18T00:52:01.087Z,16
2018-08-18T00:53:01.088Z,15
2018-08-18T00:57:01.090Z,14
2018-08-18T00:58:01.087Z,15
2018-08-18T01:00:01.100Z,17
2018-08-18T01:01:01.091Z,18
2018-08-18T01:02:01.088Z,20
2018-08-18T01:03:01.092Z,19
2018-08-18T01:04:01.088Z,22
2018-08-18T01:05:01.094Z,20
2018-08-18T01:08:01.092Z,21
2018-08-18T01:09:01.090Z,17
2018-08-18T01:11:01.237Z,16
2018-08-18T01:12:01.136Z,14
2018-08-18T01:13:01.180Z,13
2018-08-18T01:15:01.137Z,12
2018-08-18T01:16:01.117Z,14
2018-08-18T01:17:01.089Z,15
2018-08-18T01:18:01.092Z,16
2018-08-18T01:20:01.141Z,18
2018-08-18T01:22:01.090Z,19
2018-08-18T01:29:01.116Z,18
2018-08-18T01:30:01.079Z,17
2018-08-18T01:31:01.102Z,16
2018-08-18T01:32:01.075Z,17
2018-08-18T01:33:01.075Z,16
2018-08-18T01:36:01.103Z,17
2018-08-18T01:40:01.086Z,16
2018-08-18T01:41:01.102Z,18
2018-08-18T01:44:01.077Z,19
2018-08-18T01:45:01.116Z,21
2018-08-18T01:46:01.105Z,19
2018-08-18T01:47:01.079Z,18
2018-08-18T01:49:01.084Z,19
2018-08-18T01:50:01.084Z,18
2018-08-18T01:51:01.109Z,20
2018-08-18T01:52:01.080Z,19
2018-08-18T01:54:01.083Z,17
2018-08-18T01:56:01.107Z,16
2018-08-18T01:57:01.081Z,17
2018-08-18T01:58:01.082Z,18
2018-08-18T01:59:01.081Z,19
2018-08-18T02:00:01.083Z,17
2018-08-18T02:01:01.110Z,16
2018-08-18T02:03:01.084Z,15
2018-08-18T02:04:01.083Z,14
2018-08-18T02:05:01.081Z,18
2018-08-18T02:06:01.109Z,19
2018-08-18T02:07:01.088Z,18
2018-08-18T02:08:01.088Z,19
2018-08-18T02:09:01.083Z,18
2018-08-18T02:10:01.088Z,17
2018-08-18T02:11:01.112Z,16
2018-08-18T02:12:01.083Z,15
2018-08-18T02:14:01.083Z,14
2018-08-18T02:15:01.090Z,12
2018-08-18T02:16:01.111Z,14
2018-08-18T02:17:01.090Z,16
2018-08-18T02:18:01.085Z,14
2018-08-18T02:20:01.170Z,16
2018-08-18T02:21:01.124Z,17
2018-08-18T02:22:01.089Z,16
2018-08-18T02:23:01.087Z,20
2018-08-18T02:24:01.084Z,22
2018-08-18T02:25:01.090Z,21
2018-08-18T02:26:01.115Z,18
2018-08-18T02:28:01.086Z,16
2018-08-18T02:29:01.094Z,14
2018-08-18T02:30:01.099Z,15
2018-08-18T02:31:01.112Z,17
2018-08-18T02:33:01.088Z,19
2018-08-18T02:34:01.086Z,20
2018-08-18T02:35:01.086Z,21
2018-08-18T02:36:01.089Z,19
2018-08-18T02:37:01.085Z,18
2018-08-18T02:38:01.087Z,17
2018-08-18T02:39:01.097Z,16
2018-08-18T02:40:01.149Z,15
2018-08-18T02:41:01.087Z,17
2018-08-18T02:42:01.088Z,20
2018-08-18T02:43:01.090Z,22
2018-08-18T02:45:01.092Z,20
2018-08-18T02:46:01.094Z,19
2018-08-18T02:47:01.090Z,18
2018-08-18T02:48:01.091Z,16
2018-08-18T02:50:01.091Z,17
2018-08-18T02:52:01.092Z,15
2018-08-18T02:53:01.093Z,16
2018-08-18T02:54:01.096Z,15
2018-08-18T02:55:01.094Z,17
2018-08-18T02:56:01.091Z,18
2018-08-18T02:57:01.092Z,19
2018-08-18T02:58:01.093Z,18
2018-08-18T02:59:01.095Z,19
2018-08-18T03:00:01.099Z,18
2018-08-18T03:02:01.077Z,15
2018-08-18T03:03:01.079Z,16
2018-08-18T03:04:01.103Z,17
2018-08-18T03:10:01.081Z,18
2018-08-18T03:12:01.076Z,20
2018-08-18T03:13:01.076Z,18
2018-08-18T03:14:01.103Z,20
2018-08-18T03:15:01.077Z,19
2018-08-18T03:16:01.080Z,18
2018-08-18T03:17:01.076Z,19
2018-08-18T03:20:01.089Z,20
2018-08-18T03:21:01.076Z,19
2018-08-18T03:22:01.078Z,16
2018-08-18T03:23:01.081Z,17
2018-08-18T03:24:01.113Z,18
2018-08-18T03:27:01.077Z,19
2018-08-18T03:28:01.078Z,20
2018-08-18T03:29:01.224Z,17
2018-08-18T03:30:02.104Z,17
2018-08-18T03:35:01.082Z,18
2018-08-18T03:36:01.080Z,17
2018-08-18T03:37:01.085Z,16
2018-08-18T03:38:01.083Z,17
2018-08-18T03:39:01.110Z,18
2018-08-18T03:41:01.086Z,19
2018-08-18T03:42:01.083Z,18
2018-08-18T03:45:01.092Z,18
2018-08-18T03:46:01.084Z,19
2018-08-18T03:47:01.082Z,20
2018-08-18T03:48:01.113Z,19
2018-08-18T03:50:01.083Z,17
2018-08-18T03:53:01.111Z,16
2018-08-18T03:55:01.086Z,17
2018-08-18T03:57:01.090Z,16
2018-08-18T04:00:01.090Z,17
2018-08-18T04:03:01.114Z,20
2018-08-18T04:04:01.089Z,19
2018-08-18T04:05:01.095Z,17
2018-08-18T04:06:01.092Z,18
2018-08-18T04:07:01.093Z,17
2018-08-18T04:08:01.120Z,13
2018-08-18T04:10:01.091Z,14
2018-08-18T04:11:01.095Z,15
2018-08-18T04:12:01.104Z,16
2018-08-18T04:13:01.130Z,17
2018-08-18T04:14:01.096Z,16
2018-08-18T04:15:01.095Z,16
2018-08-18T04:16:01.091Z,15
2018-08-18T04:18:06.092Z,13
2018-08-18T04:23:07.119Z,17
2018-08-18T04:24:01.100Z,18
2018-08-18T04:26:01.086Z,17
2018-08-18T04:28:01.104Z,18
2018-08-18T04:29:01.078Z,17
2018-08-18T04:30:01.078Z,15
2018-08-18T04:31:01.081Z,16
2018-08-18T04:33:01.104Z,15
2018-08-18T04:34:01.080Z,16
2018-08-18T04:35:01.079Z,19
2018-08-18T04:38:01.106Z,18
2018-08-18T04:40:01.081Z,16
2018-08-18T04:45:01.084Z,16
2018-08-18T04:48:01.115Z,17
2018-08-18T04:49:01.085Z,16
2018-08-18T04:50:01.088Z,17
2018-08-18T04:53:01.128Z,16
2018-08-18T04:55:01.094Z,14
2018-08-18T04:57:01.188Z,15
2018-08-18T05:00:01.092Z,17
2018-08-18T05:02:01.090Z,15
2018-08-18T05:03:01.115Z,17
2018-08-18T05:04:01.089Z,18
2018-08-18T05:05:01.139Z,17
2018-08-18T05:06:01.118Z,18
2018-08-18T05:07:01.089Z,20
2018-08-18T05:08:01.092Z,18
2018-08-18T05:09:01.123Z,19
2018-08-18T05:11:01.115Z,18
2018-08-18T05:12:01.094Z,17
2018-08-18T05:15:01.097Z,18
2018-08-18T05:16:06.093Z,19
2018-08-18T05:17:01.103Z,18
2018-08-18T05:18:01.089Z,19
2018-08-18T05:19:01.163Z,17
2018-08-18T05:23:01.091Z,18
2018-08-18T05:24:01.091Z,19
2018-08-18T05:25:01.093Z,18
2018-08-18T05:26:06.094Z,19
2018-08-18T05:28:01.076Z,21
2018-08-18T05:30:01.080Z,21
2018-08-18T05:31:01.076Z,22
2018-08-18T05:32:01.078Z,20
2018-08-18T05:33:01.078Z,16
2018-08-18T05:34:01.077Z,15
2018-08-18T05:36:01.077Z,12
2018-08-18T05:38:01.080Z,13
2018-08-18T05:39:01.079Z,14
2018-08-18T05:40:01.081Z,13
2018-08-18T05:41:01.088Z,16
2018-08-18T05:42:01.077Z,17
2018-08-18T05:43:01.079Z,16
2018-08-18T05:44:01.079Z,17
2018-08-18T05:45:01.083Z,18
2018-08-18T05:46:01.084Z,15
2018-08-18T05:48:01.080Z,16
2018-08-18T05:49:01.079Z,18
2018-08-18T05:51:01.090Z,19
2018-08-18T05:52:01.081Z,22
2018-08-18T05:54:01.081Z,21
2018-08-18T05:56:01.083Z,20
2018-08-18T05:57:01.084Z,19
2018-08-18T06:00:01.081Z,19
2018-08-18T06:01:01.081Z,18
2018-08-18T06:04:01.121Z,17
2018-08-18T06:05:01.081Z,16
2018-08-18T06:06:01.080Z,17
2018-08-18T06:07:01.083Z,16
2018-08-18T06:11:01.082Z,17
2018-08-18T06:13:01.085Z,15
2018-08-18T06:15:01.084Z,14
2018-08-18T06:16:01.085Z,13
2018-08-18T06:17:01.084Z,12
2018-08-18T06:18:01.090Z,13
2018-08-18T06:21:01.086Z,15
2018-08-18T06:23:01.085Z,16
2018-08-18T06:25:01.087Z,18
2018-08-18T06:26:01.089Z,15
2018-08-18T06:27:01.086Z,16
2018-08-18T06:28:01.088Z,15
2018-08-18T06:29:01.123Z,14
2018-08-18T06:30:01.088Z,13
2018-08-18T06:31:01.089Z,14
2018-08-18T06:32:01.088Z,13
2018-08-18T06:33:01.091Z,15
2018-08-18T06:34:01.128Z,16
2018-08-18T06:35:01.154Z,15
2018-08-18T06:36:01.124Z,16
2018-08-18T06:37:01.090Z,19
2018-08-18T06:38:01.089Z,17
2018-08-18T06:39:01.137Z,16
2018-08-18T06:40:01.089Z,17
2018-08-18T06:41:01.124Z,16
2018-08-18T06:42:01.094Z,15
2018-08-18T06:43:01.089Z,16
2018-08-18T06:45:01.090Z,16
2018-08-18T06:48:01.091Z,17
2018-08-18T06:50:01.096Z,18
2018-08-18T06:51:01.092Z,17
2018-08-18T06:52:01.092Z,18
2018-08-18T06:53:01.092Z,15
2018-08-18T06:54:01.093Z,13
2018-08-18T06:57:01.190Z,12
2018-08-18T06:58:01.092Z,15
2018-08-18T06:59:01.092Z,17
2018-08-18T07:00:01.097Z,17
2018-08-18T07:02:01.094Z,18
2018-08-18T07:03:01.092Z,20
2018-08-18T07:04:01.093Z,21
2018-08-18T07:05:01.096Z,22
2018-08-18T07:06:01.233Z,21
2018-08-18T07:08:01.093Z,18
2018-08-18T07:09:01.093Z,17
2018-08-18T07:12:01.078Z,15
2018-08-18T07:13:01.081Z,16
2018-08-18T07:14:01.080Z,15
2018-08-18T07:15:01.104Z,15
2018-08-18T07:16:01.079Z,14
2018-08-18T07:17:01.078Z,15
2018-08-18T07:19:01.078Z,17
2018-08-18T07:20:01.103Z,19
2018-08-18T07:22:01.086Z,18
2018-08-18T07:23:01.079Z,17
2018-08-18T07:24:01.076Z,16
2018-08-18T07:26:01.078Z,15
2018-08-18T07:27:01.082Z,14
2018-08-18T07:28:01.078Z,16
2018-08-18T07:30:01.082Z,16
2018-08-18T07:32:01.082Z,18
2018-08-18T07:33:01.079Z,17
2018-08-18T07:35:01.082Z,16
2018-08-18T07:36:01.081Z,19
2018-08-18T07:37:01.129Z,18
2018-08-18T07:38:01.081Z,19
2018-08-18T07:40:01.092Z,18
2018-08-18T07:41:01.089Z,16
2018-08-18T07:42:01.080Z,15
2018-08-18T07:43:01.080Z,17
2018-08-18T07:44:01.081Z,18
2018-08-18T07:45:01.082Z,19
2018-08-18T07:46:01.084Z,21
2018-08-18T07:49:01.095Z,19
2018-08-18T07:51:01.084Z,18
2018-08-18T07:52:01.082Z,17
2018-08-18T07:53:01.157Z,15
2018-08-18T07:54:01.083Z,16
2018-08-18T07:57:01.082Z,15
2018-08-18T07:58:01.082Z,16
2018-08-18T07:59:01.083Z,18
2018-08-18T08:00:01.143Z,17
2018-08-18T08:02:01.088Z,19
2018-08-18T08:04:01.085Z,17
2018-08-18T08:05:01.153Z,16
2018-08-18T08:07:01.144Z,14
2018-08-18T08:08:01.086Z,15
2018-08-18T08:09:01.086Z,17
2018-08-18T08:11:01.112Z,18
2018-08-18T08:13:01.198Z,16
2018-08-18T08:14:01.086Z,14
2018-08-18T08:15:01.087Z,13
2018-08-18T08:16:01.113Z,12
2018-08-18T08:17:01.089Z,13
2018-08-18T08:18:01.091Z,15
2018-08-18T08:19:01.092Z,17
2018-08-18T08:22:01.086Z,16
2018-08-18T08:23:01.090Z,18
2018-08-18T08:25:01.087Z,17
2018-08-18T08:26:01.116Z,18
2018-08-18T08:27:01.087Z,17
2018-08-18T08:28:01.087Z,14
2018-08-18T08:30:01.151Z,14
2018-08-18T08:31:01.113Z,13
2018-08-18T08:33:01.087Z,14
2018-08-18T08:34:01.090Z,13
2018-08-18T08:35:01.087Z,16
2018-08-18T08:36:01.114Z,17
2018-08-18T08:37:01.089Z,18
2018-08-18T08:38:01.097Z,17
2018-08-18T08:39:01.091Z,18
2018-08-18T08:40:01.089Z,17
2018-08-18T08:41:01.117Z,16
2018-08-18T08:43:01.089Z,18
2018-08-18T08:44:01.090Z,17
2018-08-18T08:45:01.090Z,17
2018-08-18T08:46:01.117Z,19
2018-08-18T08:48:01.096Z,17
2018-08-18T08:49:01.138Z,18
2018-08-18T08:51:01.123Z,16
2018-08-18T08:52:01.096Z,15
2018-08-18T08:53:01.090Z,17
2018-08-18T08:55:01.094Z,18
2018-08-18T08:56:01.122Z,19
2018-08-18T08:57:01.091Z,18
2018-08-18T09:02:01.077Z,17
2018-08-18T09:03:01.076Z,16
2018-08-18T09:06:01.105Z,15
2018-08-18T09:08:01.076Z,16
2018-08-18T09:09:01.079Z,18
2018-08-18T09:10:01.076Z,16
2018-08-18T09:14:01.074Z,13
2018-08-18T09:15:01.076Z,15
2018-08-18T09:16:01.075Z,14
2018-08-18T09:20:01.078Z,13
2018-08-18T09:21:01.076Z,14
2018-08-18T09:23:01.078Z,15
2018-08-18T09:24:01.078Z,17
2018-08-18T09:27:01.084Z,18
2018-08-18T09:28:01.078Z,16
2018-08-18T09:30:01.082Z,15
2018-08-18T09:31:01.082Z,14
2018-08-18T09:32:01.082Z,13
2018-08-18T09:33:01.078Z,14
2018-08-18T09:34:01.079Z,15
2018-08-18T09:35:01.082Z,17
2018-08-18T09:37:01.084Z,19
2018-08-18T09:38:01.079Z,20
2018-08-18T09:39:01.083Z,18
2018-08-18T09:40:01.081Z,16
2018-08-18T09:41:01.083Z,15
2018-08-18T09:42:01.080Z,16
2018-08-18T09:45:01.084Z,16
2018-08-18T09:48:01.079Z,14
2018-08-18T09:50:01.083Z,13
2018-08-18T09:51:01.083Z,14
2018-08-18T09:52:01.082Z,13
2018-08-18T09:53:01.082Z,14
2018-08-18T09:54:01.081Z,15
2018-08-18T09:55:01.111Z,16
2018-08-18T09:56:01.083Z,18
2018-08-18T09:59:01.094Z,17
2018-08-18T10:00:01.088Z,18
2018-08-18T10:01:01.083Z,16
2018-08-18T10:05:01.112Z,15
2018-08-18T10:07:01.113Z,16
2018-08-18T10:09:01.086Z,17
2018-08-18T10:10:01.089Z,16
2018-08-18T10:11:01.086Z,17
2018-08-18T10:12:01.122Z,16
2018-08-18T10:15:01.097Z,18
2018-08-18T10:16:01.088Z,17
2018-08-18T10:17:06.091Z,18
2018-08-18T10:18:01.086Z,19
2018-08-18T10:19:01.088Z,21
2018-08-18T10:20:01.086Z,22
2018-08-18T10:22:01.124Z,21
2018-08-18T10:23:01.088Z,19
2018-08-18T10:24:01.093Z,18
2018-08-18T10:25:01.088Z,16
2018-08-18T10:26:01.090Z,17
2018-08-18T10:30:01.091Z,16
2018-08-18T10:31:01.089Z,15
2018-08-18T10:32:01.125Z,14
2018-08-18T10:33:01.095Z,15
2018-08-18T10:34:01.091Z,14
2018-08-18T10:35:01.092Z,16
2018-08-18T10:39:01.119Z,17
2018-08-18T10:42:01.096Z,16
2018-08-18T10:44:01.122Z,15
2018-08-18T10:45:01.099Z,14
2018-08-18T10:47:01.089Z,15
2018-08-18T10:48:01.119Z,14
2018-08-18T10:50:01.078Z,13
2018-08-18T10:51:01.074Z,12
2018-08-18T10:52:01.077Z,13
2018-08-18T10:54:01.111Z,14
2018-08-18T10:55:01.081Z,17
2018-08-18T10:58:01.078Z,19
2018-08-18T10:59:01.113Z,18
2018-08-18T11:00:01.081Z,18
2018-08-18T11:01:01.078Z,20
2018-08-18T11:07:01.105Z,19
2018-08-18T11:08:01.079Z,17
2018-08-18T11:09:01.081Z,18
2018-08-18T11:10:06.084Z,17
2018-08-18T11:11:01.080Z,16
2018-08-18T11:14:01.081Z,15
2018-08-18T11:15:01.088Z,15
2018-08-18T11:20:01.088Z,17
2018-08-18T11:23:01.094Z,18
2018-08-18T11:25:01.094Z,17
2018-08-18T11:26:01.091Z,16
2018-08-18T11:28:01.098Z,14
2018-08-18T11:29:02.343Z,15
2018-08-18T11:30:01.094Z,15
2018-08-18T11:32:01.092Z,16
2018-08-18T11:33:01.147Z,17
2018-08-18T11:34:01.097Z,16
2018-08-18T11:39:01.088Z,15
2018-08-18T11:40:06.093Z,17
2018-08-18T11:41:01.088Z,18
2018-08-18T11:42:01.090Z,17
2018-08-18T11:43:01.088Z,16
2018-08-18T11:44:01.089Z,17
2018-08-18T11:45:06.097Z,15
2018-08-18T11:46:01.091Z,16
2018-08-18T11:48:01.095Z,18
2018-08-18T11:49:01.089Z,19
2018-08-18T11:51:01.117Z,18
2018-08-18T11:53:01.155Z,16
2018-08-18T11:54:01.091Z,15
2018-08-18T11:55:01.092Z,14
2018-08-18T11:57:01.073Z,12
2018-08-18T11:58:01.075Z,13
2018-08-18T11:59:01.075Z,14
2018-08-18T12:00:01.076Z,15
2018-08-18T12:02:01.146Z,17
2018-08-18T12:03:01.074Z,16
2018-08-18T12:04:01.078Z,15
2018-08-18T12:06:01.099Z,17
2018-08-18T12:07:01.075Z,15
2018-08-18T12:08:01.073Z,14
2018-08-18T12:09:01.074Z,16
2018-08-18T12:12:01.076Z,17
2018-08-18T12:13:01.077Z,18
2018-08-18T12:14:01.076Z,17
2018-08-18T12:15:01.077Z,18
2018-08-18T12:16:01.106Z,17
2018-08-18T12:19:01.076Z,16
2018-08-18T12:21:01.077Z,17
2018-08-18T12:22:01.077Z,16
2018-08-18T12:23:01.077Z,17
2018-08-18T12:25:01.078Z,15
2018-08-18T12:26:01.077Z,16
2018-08-18T12:28:01.086Z,14
2018-08-18T12:30:01.129Z,14
2018-08-18T12:31:01.078Z,12
2018-08-18T12:33:01.085Z,13
2018-08-18T12:36:01.107Z,15
2018-08-18T12:37:01.207Z,16
2018-08-18T12:38:01.079Z,17
2018-08-18T12:40:01.080Z,18
2018-08-18T12:42:01.084Z,20
2018-08-18T12:43:01.083Z,19
2018-08-18T12:44:01.083Z,22
2018-08-18T12:45:01.082Z,22
2018-08-18T12:46:01.107Z,20
2018-08-18T12:47:01.084Z,19
2018-08-18T12:48:01.081Z,18
2018-08-18T12:50:01.216Z,17
2018-08-18T12:51:01.112Z,15
2018-08-18T12:53:01.083Z,14
2018-08-18T12:56:01.126Z,17
2018-08-18T12:57:01.097Z,15
2018-08-18T12:58:01.085Z,16
2018-08-18T12:59:01.085Z,15
2018-08-18T13:00:01.093Z,16
2018-08-18T13:01:01.134Z,17
2018-08-18T13:02:01.086Z,19
2018-08-18T13:03:01.087Z,18
2018-08-18T13:04:01.087Z,19
2018-08-18T13:05:01.089Z,20
2018-08-18T13:06:01.126Z,19
2018-08-18T13:07:01.087Z,17
2018-08-18T13:08:01.085Z,18
2018-08-18T13:09:01.087Z,17
2018-08-18T13:10:01.101Z,15
2018-08-18T13:11:01.087Z,14
2018-08-18T13:12:01.114Z,15
2018-08-18T13:14:01.090Z,16
2018-08-18T13:15:01.090Z,17
2018-08-18T13:16:01.117Z,16
2018-08-18T13:20:01.115Z,14
2018-08-18T13:21:01.091Z,15
2018-08-18T13:22:01.119Z,17
2018-08-18T13:23:01.093Z,18
2018-08-18T13:24:01.151Z,17
2018-08-18T13:25:01.098Z,20
2018-08-18T13:26:01.089Z,19
2018-08-18T13:27:01.119Z,17
2018-08-18T13:28:01.093Z,15
2018-08-18T13:29:01.090Z,16
2018-08-18T13:30:01.095Z,17
2018-08-18T13:32:01.122Z,18
2018-08-18T13:35:01.078Z,16
2018-08-18T13:36:01.079Z,13
2018-08-18T13:37:01.107Z,14
2018-08-18T13:38:01.076Z,12
2018-08-18T13:39:01.075Z,11
2018-08-18T13:40:01.077Z,12
2018-08-18T13:41:01.077Z,13
2018-08-18T13:42:01.102Z,14
2018-08-18T13:43:01.078Z,15
2018-08-18T13:44:01.087Z,16
2018-08-18T13:45:01.079Z,17
2018-08-18T13:46:01.081Z,18
2018-08-18T13:47:01.105Z,15
2018-08-18T13:48:01.075Z,16
2018-08-18T13:49:01.075Z,15
2018-08-18T13:53:01.104Z,14
2018-08-18T13:56:01.083Z,15
2018-08-18T13:58:01.105Z,14
2018-08-18T13:59:01.077Z,12
2018-08-18T14:00:01.077Z,13
2018-08-18T14:01:01.117Z,12
2018-08-18T14:03:01.076Z,15
2018-08-18T14:04:01.078Z,18
2018-08-18T14:06:01.077Z,21
2018-08-18T14:07:01.076Z,22
2018-08-18T14:09:01.083Z,21
2018-08-18T14:11:01.178Z,20
2018-08-18T14:12:01.079Z,21
2018-08-18T14:13:01.080Z,20
2018-08-18T14:15:01.083Z,21
2018-08-18T14:16:01.081Z,18
2018-08-18T14:18:01.081Z,19
2018-08-18T14:19:01.086Z,17
2018-08-18T14:21:01.118Z,19
2018-08-18T14:23:01.149Z,18
2018-08-18T14:24:01.091Z,20
2018-08-18T14:25:01.090Z,22
2018-08-18T14:26:01.082Z,21
2018-08-18T14:28:01.082Z,20
2018-08-18T14:30:01.084Z,17
2018-08-18T14:31:01.083Z,18
2018-08-18T14:34:01.124Z,17
2018-08-18T14:35:01.086Z,18
2018-08-18T14:36:01.084Z,16
2018-08-18T14:37:01.085Z,15
2018-08-18T14:38:01.088Z,16
2018-08-18T14:40:01.086Z,14
2018-08-18T14:45:01.088Z,15
2018-08-18T14:46:01.114Z,17
2018-08-18T14:47:01.085Z,16
2018-08-18T14:49:01.083Z,15
2018-08-18T14:50:01.082Z,16
2018-08-18T14:51:01.086Z,15
2018-08-18T14:52:01.088Z,16
2018-08-18T14:53:01.114Z,17
2018-08-18T14:55:01.084Z,19
2018-08-18T14:56:01.087Z,17
2018-08-18T14:57:01.088Z,16
2018-08-18T14:58:01.122Z,17
2018-08-18T14:59:01.085Z,16
2018-08-18T15:00:01.086Z,15
2018-08-18T15:01:01.085Z,17
2018-08-18T15:03:01.088Z,16
2018-08-18T15:04:01.113Z,18
2018-08-18T15:05:01.089Z,16
2018-08-18T15:06:01.113Z,17
2018-08-18T15:07:01.090Z,18
2018-08-18T15:08:01.087Z,19
2018-08-18T15:09:01.088Z,18
2018-08-18T15:10:01.091Z,19
2018-08-18T15:11:01.153Z,17
2018-08-18T15:13:01.094Z,18
2018-08-18T15:14:01.089Z,16
2018-08-18T15:15:01.099Z,14
2018-08-18T15:16:01.134Z,15
2018-08-18T15:17:01.089Z,16
2018-08-18T15:18:01.093Z,14
2018-08-18T15:19:01.094Z,16
2018-08-18T15:20:01.091Z,17
2018-08-18T15:21:01.161Z,18
2018-08-18T15:22:01.093Z,17
2018-08-18T15:23:01.091Z,16
2018-08-18T15:24:01.101Z,18
2018-08-18T15:25:01.094Z,16
2018-08-18T15:26:06.100Z,17
2018-08-18T15:27:01.095Z,18
2018-08-18T15:29:01.077Z,21
2018-08-18T15:30:01.076Z,20
2018-08-18T15:32:01.077Z,17
2018-08-18T15:34:01.077Z,14
2018-08-18T15:35:01.077Z,16
2018-08-18T15:37:01.077Z,18
2018-08-18T15:40:01.079Z,17
2018-08-18T15:41:01.105Z,16
2018-08-18T15:42:01.080Z,15
2018-08-18T15:43:01.081Z,18
2018-08-18T15:44:01.085Z,19
2018-08-18T15:45:01.143Z,20
2018-08-18T15:46:01.115Z,19
2018-08-18T15:47:01.082Z,18
2018-08-18T15:48:01.078Z,14
2018-08-18T15:49:01.105Z,13
2018-08-18T15:52:01.078Z,15
2018-08-18T15:53:01.085Z,16
2018-08-18T15:55:01.106Z,15
2018-08-18T15:57:01.079Z,16
2018-08-18T16:00:01.087Z,17
2018-08-18T16:02:01.077Z,18
2018-08-18T16:03:01.078Z,17
2018-08-18T16:05:01.079Z,18
2018-08-18T16:06:01.080Z,17
2018-08-18T16:07:01.079Z,16
2018-08-18T16:08:01.088Z,14
2018-08-18T16:11:01.079Z,16
2018-08-18T16:12:01.080Z,17
2018-08-18T16:13:01.081Z,20
2018-08-18T16:15:01.120Z,17
2018-08-18T16:16:01.085Z,15
2018-08-18T16:17:01.079Z,14
2018-08-18T16:18:01.080Z,12
2018-08-18T16:20:01.083Z,14
2018-08-18T16:21:01.081Z,15
2018-08-18T16:28:01.080Z,16
2018-08-18T16:29:01.084Z,15
2018-08-18T16:30:01.080Z,15
2018-08-18T16:33:01.083Z,16
2018-08-18T16:34:01.130Z,18
2018-08-18T16:35:01.108Z,19
2018-08-18T16:39:01.081Z,18
2018-08-18T16:40:01.082Z,17
2018-08-18T16:41:01.082Z,16
2018-08-18T16:43:01.087Z,15
2018-08-18T16:44:01.085Z,16
2018-08-18T16:45:01.084Z,16
2018-08-18T16:46:01.084Z,18
2018-08-18T16:47:01.086Z,19
2018-08-18T16:48:01.084Z,17
2018-08-18T16:50:01.084Z,19
2018-08-18T16:51:01.086Z,18
2018-08-18T16:52:01.083Z,19
2018-08-18T16:53:01.091Z,21
2018-08-18T16:55:01.085Z,20
2018-08-18T16:57:01.087Z,18
2018-08-18T16:58:01.093Z,17
2018-08-18T16:59:01.113Z,18
2018-08-18T17:00:01.087Z,17
2018-08-18T17:04:06.094Z,16
2018-08-18T17:06:01.095Z,15
2018-08-18T17:07:01.092Z,16
2018-08-18T17:09:01.092Z,17
2018-08-18T17:11:01.089Z,16
2018-08-18T17:12:01.088Z,17
2018-08-18T17:13:01.087Z,18
2018-08-18T17:14:01.123Z,17
2018-08-18T17:15:01.087Z,20
2018-08-18T17:16:01.086Z,21
2018-08-18T17:17:01.086Z,18
2018-08-18T17:18:01.151Z,17
2018-08-18T17:19:01.125Z,16
2018-08-18T17:20:01.088Z,15
2018-08-18T17:21:01.088Z,13
2018-08-18T17:24:01.120Z,12
2018-08-18T17:25:01.089Z,11
2018-08-18T17:26:01.092Z,13
2018-08-18T17:27:01.090Z,14
2018-08-18T17:29:01.118Z,15
2018-08-18T17:30:01.148Z,16
2018-08-18T17:31:01.092Z,14
2018-08-18T17:35:01.095Z,15
2018-08-18T17:37:01.090Z,16
2018-08-18T17:38:01.089Z,19
2018-08-18T17:39:01.119Z,18
2018-08-18T17:40:01.094Z,17
2018-08-18T17:41:01.090Z,18
2018-08-18T17:42:01.090Z,17
2018-08-18T17:43:01.091Z,14
2018-08-18T17:45:01.094Z,16
2018-08-18T17:46:01.095Z,15
2018-08-18T17:47:01.092Z,16
2018-08-18T17:48:01.094Z,17
2018-08-18T17:50:01.077Z,16
2018-08-18T17:51:01.078Z,17
2018-08-18T17:52:01.081Z,18
2018-08-18T17:53:01.078Z,16
2018-08-18T17:54:01.113Z,17
2018-08-18T17:55:01.088Z,19
2018-08-18T17:56:01.079Z,18
2018-08-18T17:58:01.079Z,19
2018-08-18T17:59:01.140Z,17
2018-08-18T18:00:01.095Z,16
2018-08-18T18:02:01.107Z,17
2018-08-18T18:03:01.080Z,16
2018-08-18T18:04:01.079Z,18
2018-08-18T18:06:01.226Z,17
2018-08-18T18:07:01.081Z,16
2018-08-18T18:08:01.082Z,18
2018-08-18T18:09:01.079Z,17
2018-08-18T18:10:01.080Z,16
2018-08-18T18:11:01.106Z,18
2018-08-18T18:12:01.081Z,17
2018-08-18T18:13:01.081Z,16
2018-08-18T18:15:01.084Z,15
2018-08-18T18:16:01.111Z,13
2018-08-18T18:17:01.082Z,14
2018-08-18T18:18:01.082Z,15
2018-08-18T18:19:01.083Z,16
2018-08-18T18:20:01.088Z,18
2018-08-18T18:22:01.111Z,16
2018-08-18T18:26:01.113Z,17
2018-08-18T18:27:01.085Z,18
2018-08-18T18:28:01.084Z,19
2018-08-18T18:29:01.085Z,18
2018-08-18T18:30:01.085Z,18
2018-08-18T18:32:01.112Z,19
2018-08-18T18:33:01.086Z,18
2018-08-18T18:34:01.086Z,19
2018-08-18T18:35:01.219Z,20
2018-08-18T18:36:01.112Z,18
2018-08-18T18:37:01.089Z,16
2018-08-18T18:38:01.097Z,14
2018-08-18T18:39:01.086Z,16
2018-08-18T18:40:01.086Z,15
2018-08-18T18:41:01.122Z,16
2018-08-18T18:42:01.087Z,15
2018-08-18T18:43:01.088Z,16
2018-08-18T18:44:01.088Z,14
2018-08-18T18:45:01.092Z,14
2018-08-18T18:47:01.115Z,16
2018-08-18T18:48:01.089Z,15
2018-08-18T18:49:01.093Z,16
2018-08-18T18:50:01.090Z,15
2018-08-18T18:51:01.091Z,16
2018-08-18T18:52:01.116Z,17
2018-08-18T18:56:01.093Z,15
2018-08-18T18:58:01.122Z,16
2018-08-18T19:00:01.146Z,16
2018-08-18T19:02:01.077Z,17
2018-08-18T19:04:01.106Z,16
2018-08-18T19:06:01.077Z,17
2018-08-18T19:08:01.080Z,16
2018-08-18T19:09:01.106Z,15
2018-08-18T19:11:01.080Z,13
2018-08-18T19:12:01.081Z,14
2018-08-18T19:13:01.078Z,16
2018-08-18T19:15:01.084Z,17
2018-08-18T19:16:01.192Z,18
2018-08-18T19:17:01.080Z,17
2018-08-18T19:19:01.092Z,18
2018-08-18T19:20:01.079Z,17
2018-08-18T19:23:02.104Z,16
2018-08-18T19:24:01.081Z,14
2018-08-18T19:26:01.082Z,15
2018-08-18T19:30:01.080Z,15
2018-08-18T19:33:01.082Z,16
2018-08-18T19:34:01.081Z,18
2018-08-18T19:36:01.081Z,21
2018-08-18T19:37:01.083Z,20
2018-08-18T19:38:01.085Z,18
2018-08-18T19:40:01.084Z,17
2018-08-18T19:41:01.089Z,16
2018-08-18T19:42:01.082Z,15
2018-08-18T19:43:01.083Z,16
2018-08-18T19:45:01.084Z,17
2018-08-18T19:46:01.083Z,15
2018-08-18T19:47:01.083Z,17
2018-08-18T19:48:01.085Z,18
2018-08-18T19:49:01.089Z,19
2018-08-18T19:50:01.094Z,20
2018-08-18T19:51:01.085Z,22
2018-08-18T19:53:01.137Z,20
2018-08-18T19:54:01.156Z,19
2018-08-18T19:55:01.087Z,18
2018-08-18T19:56:01.085Z,17
2018-08-18T19:57:01.089Z,16
2018-08-18T19:58:01.115Z,17
2018-08-18T19:59:01.087Z,18
2018-08-18T20:00:01.088Z,19
2018-08-18T20:03:01.117Z,20
2018-08-18T20:04:01.140Z,17
2018-08-18T20:05:01.088Z,16
2018-08-18T20:06:01.090Z,17
2018-08-18T20:07:01.090Z,18
2018-08-18T20:08:01.100Z,19
2018-08-18T20:09:01.120Z,21
2018-08-18T20:11:01.089Z,19
2018-08-18T20:12:01.093Z,18
2018-08-18T20:13:01.091Z,15
2018-08-18T20:14:01.115Z,12
2018-08-18T20:15:01.090Z,13
2018-08-18T20:16:01.095Z,14
2018-08-18T20:17:01.091Z,13
2018-08-18T20:18:01.091Z,15
2018-08-18T20:19:01.119Z,17
2018-08-18T20:20:01.091Z,16
2018-08-18T20:21:01.092Z,17
2018-08-18T20:23:01.091Z,16
2018-08-18T20:24:01.119Z,15
2018-08-18T20:25:01.091Z,14
2018-08-18T20:27:01.092Z,15
2018-08-18T20:29:01.120Z,16
2018-08-18T20:30:01.097Z,16
2018-08-18T20:31:01.093Z,18
2018-08-18T20:32:01.093Z,17